createdAt,value
2022-08-26T00:01:28.983Z,5.78
2022-08-26T00:03:32.856Z,5.35
2022-08-26T00:05:35.714Z,5.05
2022-08-26T00:07:38.528Z,5.05
2022-08-26T00:09:41.462Z,5.82
2022-08-26T00:11:50.053Z,5.07
2022-08-26T00:13:53.917Z,5.03
2022-08-26T00:15:56.995Z,4.28
2022-08-26T00:18:01.279Z,5.28
2022-08-26T00:22:07.234Z,5.22
2022-08-26T00:24:10.345Z,6.18
2022-08-26T00:26:13.403Z,5.07
2022-08-26T00:28:17.075Z,5.82
2022-08-26T00:30:28.411Z,5.80
2022-08-26T00:32:31.485Z,4.82
2022-08-26T00:34:36.042Z,5.53
2022-08-26T00:36:39.806Z,4.75
2022-08-26T00:38:44.061Z,5.57
2022-08-26T00:40:52.994Z,5.22
2022-08-26T00:42:57.207Z,5.20
2022-08-26T00:45:00.065Z,4.63
2022-08-26T00:47:06.626Z,5.15
2022-08-26T00:49:14.505Z,5.18
2022-08-26T00:51:23.880Z,5.13
2022-08-26T00:53:32.165Z,5.20
2022-08-26T00:55:40.322Z,5.25
2022-08-26T00:57:43.970Z,5.30
2022-08-26T00:59:52.317Z,5.55
2022-08-26T01:01:55.317Z,5.78
2022-08-26T01:04:00.818Z,5.03
2022-08-26T01:06:06.634Z,5.43
2022-08-26T01:08:16.873Z,4.97
2022-08-26T01:10:23.475Z,5.55
2022-08-26T01:12:30.001Z,5.63
2022-08-26T01:14:36.703Z,5.80
2022-08-26T01:16:39.912Z,5.60
2022-08-26T01:18:46.753Z,5.22
2022-08-26T01:20:58.320Z,4.65
2022-08-26T01:23:06.983Z,4.75
2022-08-26T01:25:12.153Z,5.80
2022-08-26T01:27:19.575Z,4.63
2022-08-26T01:29:22.754Z,5.35
2022-08-26T01:31:29.627Z,5.85
2022-08-26T01:33:42.051Z,5.80
2022-08-26T01:35:46.083Z,5.15
2022-08-26T01:37:50.561Z,6.10
2022-08-26T01:39:57.898Z,5.40
2022-08-26T01:42:03.314Z,5.13
2022-08-26T01:44:09.713Z,5.22
2022-08-26T01:46:14.210Z,5.40
2022-08-26T01:50:30.307Z,5.13
2022-08-26T01:52:36.774Z,5.25
2022-08-26T01:54:39.759Z,5.70
2022-08-26T01:56:44.426Z,5.30
2022-08-26T01:58:51.615Z,5.63
2022-08-26T02:00:55.128Z,5.35
2022-08-26T02:03:12.942Z,5.10
2022-08-26T02:05:20.247Z,5.95
2022-08-26T02:07:24.283Z,4.95
2022-08-26T02:09:29.671Z,5.75
2022-08-26T02:11:34.820Z,6.43
2022-08-26T02:13:45.877Z,6.00
2022-08-26T02:15:49.678Z,6.30
2022-08-26T02:17:53.162Z,5.15
2022-08-26T02:19:57.272Z,5.43
2022-08-26T02:22:03.961Z,4.78
2022-08-26T02:24:12.073Z,4.82
2022-08-26T02:26:18.045Z,5.63
2022-08-26T02:28:22.307Z,5.85
2022-08-26T02:30:33.430Z,6.15
2022-08-26T02:32:37.351Z,5.15
2022-08-26T02:34:43.084Z,5.35
2022-08-26T02:36:46.032Z,5.07
2022-08-26T02:38:49.261Z,5.70
2022-08-26T02:40:54.885Z,4.93
2022-08-26T02:42:58.183Z,5.18
2022-08-26T02:45:01.187Z,5.65
2022-08-26T02:47:07.414Z,5.55
2022-08-26T02:49:10.703Z,5.20
2022-08-26T02:51:13.498Z,5.60
2022-08-26T02:53:18.013Z,5.03
2022-08-26T02:55:27.485Z,5.80
2022-08-26T02:57:32.018Z,5.15
2022-08-26T02:59:35.925Z,5.78
2022-08-26T03:01:39.070Z,5.45
2022-08-26T03:03:43.292Z,4.95
2022-08-26T03:05:46.140Z,5.55
2022-08-26T03:07:49.823Z,6.15
2022-08-26T03:09:53.578Z,5.30
2022-08-26T03:11:56.641Z,5.60
2022-08-26T03:14:00.540Z,4.78
2022-08-26T03:16:04.954Z,5.43
2022-08-26T03:18:08.576Z,5.67
2022-08-26T03:20:13.615Z,5.47
2022-08-26T03:22:19.345Z,5.20
2022-08-26T03:24:23.372Z,5.93
2022-08-26T03:26:28.911Z,5.35
2022-08-26T03:30:45.343Z,5.35
2022-08-26T03:32:48.642Z,5.40
2022-08-26T03:34:51.509Z,5.40
2022-08-26T03:36:55.745Z,5.72
2022-08-26T03:38:59.155Z,5.90
2022-08-26T03:41:02.049Z,4.93
2022-08-26T03:43:09.741Z,5.25
2022-08-26T03:45:15.334Z,4.85
2022-08-26T03:47:18.279Z,5.35
2022-08-26T03:49:21.192Z,5.10
2022-08-26T03:51:24.651Z,4.63
2022-08-26T03:53:28.933Z,5.13
2022-08-26T03:57:36.452Z,4.70
2022-08-26T03:59:41.281Z,5.40
2022-08-26T04:01:44.323Z,5.10
2022-08-26T04:04:00.171Z,5.35
2022-08-26T04:06:04.056Z,5.32
2022-08-26T04:08:07.264Z,4.65
2022-08-26T04:10:14.020Z,4.60
2022-08-26T04:12:18.307Z,5.25
2022-08-26T04:14:25.007Z,4.57
2022-08-26T04:16:29.651Z,5.65
2022-08-26T04:18:36.867Z,4.20
2022-08-26T04:20:40.415Z,5.30
2022-08-26T04:22:43.367Z,5.32
2022-08-26T04:24:46.355Z,5.10
2022-08-26T04:26:50.862Z,5.32
2022-08-26T04:28:55.798Z,5.47
2022-08-26T04:30:59.082Z,5.20
2022-08-26T04:33:04.528Z,5.15
2022-08-26T04:35:16.170Z,5.10
2022-08-26T04:37:19.730Z,5.38
2022-08-26T04:39:25.304Z,5.00
2022-08-26T04:41:31.530Z,5.35
2022-08-26T04:43:36.931Z,5.07
2022-08-26T04:45:41.685Z,6.20
2022-08-26T04:47:44.580Z,5.25
2022-08-26T04:49:47.395Z,4.90
2022-08-26T04:51:50.267Z,5.32
2022-08-26T04:53:53.483Z,5.55
2022-08-26T04:55:56.860Z,4.63
2022-08-26T04:58:00.856Z,5.18
2022-08-26T05:00:06.310Z,6.15
2022-08-26T05:02:09.141Z,5.38
2022-08-26T05:04:12.353Z,5.40
2022-08-26T05:06:20.530Z,5.60
2022-08-26T05:08:25.241Z,5.20
2022-08-26T05:10:27.393Z,5.83
2022-08-26T05:12:31.463Z,5.72
2022-08-26T05:14:34.634Z,5.60
2022-08-26T05:16:40.545Z,6.00
2022-08-26T05:18:44.910Z,6.55
2022-08-26T05:20:54.695Z,5.90
2022-08-26T05:22:57.831Z,5.20
2022-08-26T05:25:00.794Z,5.20
2022-08-26T05:27:03.917Z,4.93
2022-08-26T05:29:14.862Z,5.43
2022-08-26T05:31:22.432Z,5.22
2022-08-26T05:33:26.872Z,5.10
2022-08-26T05:37:34.771Z,6.50
2022-08-26T05:39:38.383Z,6.45
2022-08-26T05:41:44.761Z,6.47
2022-08-26T05:43:48.231Z,6.38
2022-08-26T05:45:52.018Z,6.38
2022-08-26T05:47:55.181Z,5.60
2022-08-26T05:50:00.510Z,6.20
2022-08-26T05:52:03.593Z,6.97
2022-08-26T05:54:07.117Z,7.35
2022-08-26T05:56:12.619Z,5.20
2022-08-26T05:58:17.434Z,6.57
2022-08-26T06:00:21.113Z,5.95
2022-08-26T06:02:24.453Z,6.18
2022-08-26T06:04:28.614Z,5.40
2022-08-26T06:06:35.956Z,5.80
2022-08-26T06:08:39.018Z,5.15
2022-08-26T06:10:47.636Z,5.47
2022-08-26T06:12:51.306Z,5.60
2022-08-26T06:14:54.945Z,6.40
2022-08-26T06:16:58.106Z,6.65
2022-08-26T06:19:02.765Z,4.70
2022-08-26T06:21:15.094Z,5.50
2022-08-26T06:23:37.353Z,5.93
2022-08-26T06:25:43.443Z,5.80
2022-08-26T06:27:46.291Z,6.93
2022-08-26T06:29:49.118Z,6.47
2022-08-26T06:31:52.540Z,7.35
2022-08-26T06:33:56.139Z,6.70
2022-08-26T06:36:01.000Z,6.93
2022-08-26T06:38:03.870Z,7.00
2022-08-26T06:40:09.974Z,7.43
2022-08-26T06:42:14.478Z,7.03
2022-08-26T06:44:18.981Z,6.60
2022-08-26T06:46:23.022Z,6.75
2022-08-26T06:48:28.974Z,6.75
2022-08-26T06:50:31.877Z,6.78
2022-08-26T06:52:34.706Z,7.13
2022-08-26T06:54:43.002Z,8.65
2022-08-26T06:56:47.916Z,6.80
2022-08-26T06:58:51.835Z,7.22
2022-08-26T07:00:54.645Z,7.50
2022-08-26T07:02:57.563Z,8.90
2022-08-26T07:05:00.511Z,7.20
2022-08-26T07:07:03.347Z,8.77
2022-08-26T07:09:09.707Z,8.13
2022-08-26T07:11:13.406Z,8.18
2022-08-26T07:13:18.169Z,8.00
2022-08-26T07:15:35.760Z,8.73
2022-08-26T07:17:38.941Z,8.02
2022-08-26T07:19:43.287Z,7.53
2022-08-26T07:21:46.118Z,7.20
2022-08-26T07:23:50.586Z,6.18
2022-08-26T07:25:53.428Z,7.45
2022-08-26T07:27:56.308Z,6.65
2022-08-26T07:30:01.019Z,6.50
2022-08-26T07:32:06.387Z,7.75
2022-08-26T07:34:10.483Z,7.25
2022-08-26T07:36:15.135Z,6.53
2022-08-26T07:38:17.956Z,7.55
2022-08-26T07:40:21.725Z,8.35
2022-08-26T07:42:25.334Z,8.20
2022-08-26T07:44:28.617Z,7.47
2022-08-26T07:46:32.902Z,7.43
2022-08-26T07:48:37.096Z,8.05
2022-08-26T07:50:49.149Z,7.90
2022-08-26T07:52:53.540Z,7.78
2022-08-26T07:54:57.965Z,6.95
2022-08-26T07:57:00.816Z,6.82
2022-08-26T07:59:13.576Z,6.78
2022-08-26T08:01:18.157Z,7.25
2022-08-26T08:03:23.126Z,8.00
2022-08-26T08:05:33.256Z,6.10
2022-08-26T08:07:44.145Z,7.47
2022-08-26T08:09:49.436Z,7.90
2022-08-26T08:11:52.895Z,7.57
2022-08-26T08:13:56.924Z,6.77
2022-08-26T08:16:00.541Z,7.65
2022-08-26T08:18:03.444Z,7.70
2022-08-26T08:20:09.663Z,6.70
2022-08-26T08:22:17.471Z,5.93
2022-08-26T08:24:23.006Z,6.70
2022-08-26T08:26:27.163Z,8.02
2022-08-26T08:28:30.126Z,8.73
2022-08-26T08:30:33.194Z,7.82
2022-08-26T08:32:39.241Z,8.32
2022-08-26T08:36:53.543Z,8.77
2022-08-26T08:38:57.069Z,8.43
2022-08-26T08:43:11.583Z,8.18
2022-08-26T08:45:18.934Z,8.52
2022-08-26T08:47:30.582Z,7.32
2022-08-26T08:49:35.505Z,7.75
2022-08-26T08:51:44.145Z,7.32
2022-08-26T08:53:54.831Z,8.20
2022-08-26T08:56:06.038Z,9.13
2022-08-26T08:58:19.632Z,8.10
2022-08-26T09:00:30.649Z,8.48
2022-08-26T09:02:38.542Z,8.45
2022-08-26T09:05:14.949Z,7.40
2022-08-26T09:07:21.819Z,7.43
2022-08-26T09:09:34.113Z,7.53
2022-08-26T09:11:37.741Z,7.70
2022-08-26T09:13:45.651Z,7.90
2022-08-26T09:15:59.013Z,7.97
2022-08-26T09:18:10.995Z,8.60
2022-08-26T09:20:21.926Z,8.10
2022-08-26T09:22:32.518Z,8.35
2022-08-26T09:24:48.512Z,8.05
2022-08-26T09:26:52.737Z,8.40
2022-08-26T09:28:58.898Z,8.73
2022-08-26T09:31:11.481Z,8.45
2022-08-26T09:33:18.836Z,8.48
2022-08-26T09:35:30.881Z,8.57
2022-08-26T09:37:36.706Z,8.15
2022-08-26T09:39:41.277Z,7.85
2022-08-26T09:41:44.191Z,8.57
2022-08-26T09:44:14.641Z,8.35
2022-08-26T09:46:23.317Z,8.23
2022-08-26T09:48:30.429Z,7.70
2022-08-26T09:50:36.180Z,8.05
2022-08-26T09:52:40.635Z,8.48
2022-08-26T09:55:01.203Z,8.02
2022-08-26T09:57:31.010Z,7.90
2022-08-26T09:59:33.916Z,7.90
2022-08-26T10:01:41.833Z,7.40
2022-08-26T10:03:45.098Z,7.97
2022-08-26T10:06:03.708Z,9.00
2022-08-26T10:08:20.976Z,7.95
2022-08-26T10:10:31.947Z,7.53
2022-08-26T10:12:38.615Z,7.80
2022-08-26T10:14:47.190Z,7.43
2022-08-26T10:16:56.599Z,7.40
2022-08-26T10:19:05.717Z,7.32
2022-08-26T10:21:13.146Z,7.40
2022-08-26T10:23:19.701Z,8.25
2022-08-26T10:25:32.556Z,7.85
2022-08-26T10:27:52.777Z,7.25
2022-08-26T10:30:03.633Z,6.00
2022-08-26T10:32:13.816Z,8.45
2022-08-26T10:34:18.243Z,7.82
2022-08-26T10:39:07.659Z,7.93
2022-08-26T10:41:18.221Z,7.72
2022-08-26T10:43:25.550Z,7.78
2022-08-26T10:45:43.689Z,7.22
2022-08-26T10:47:53.090Z,8.25
2022-08-26T10:50:03.303Z,7.32
2022-08-26T10:52:16.426Z,7.32
2022-08-26T10:54:27.039Z,6.10
2022-08-26T10:56:41.222Z,6.68
2022-08-26T10:59:00.763Z,6.90
2022-08-26T11:01:28.458Z,7.25
2022-08-26T11:03:40.045Z,5.90
2022-08-26T11:05:43.096Z,5.72
2022-08-26T11:07:48.352Z,7.13
2022-08-26T11:09:52.447Z,6.47
2022-08-26T11:11:57.131Z,7.30
2022-08-26T11:14:02.901Z,6.70
2022-08-26T11:16:08.099Z,6.05
2022-08-26T11:18:13.314Z,6.18
2022-08-26T11:20:36.032Z,5.78
2022-08-26T11:22:48.085Z,6.13
2022-08-26T11:25:13.307Z,5.65
2022-08-26T11:28:07.518Z,7.20
2022-08-26T11:30:42.654Z,5.88
2022-08-26T11:32:49.045Z,5.55
2022-08-26T11:34:56.768Z,6.25
2022-08-26T11:37:02.505Z,6.05
2022-08-26T11:39:18.726Z,5.78
2022-08-26T11:41:29.039Z,5.10
2022-08-26T11:43:33.756Z,4.65
2022-08-26T11:45:39.838Z,4.70
2022-08-26T11:47:42.950Z,4.53
2022-08-26T11:49:46.412Z,4.65
2022-08-26T11:51:49.760Z,5.15
2022-08-26T11:53:53.735Z,5.70
2022-08-26T11:55:59.194Z,5.63
2022-08-26T11:58:04.873Z,5.15
2022-08-26T12:00:13.571Z,5.38
2022-08-26T12:02:19.539Z,5.82
2022-08-26T12:04:29.578Z,4.85
2022-08-26T12:06:37.691Z,5.00
2022-08-26T12:08:48.274Z,6.35
2022-08-26T12:11:03.712Z,6.03
2022-08-26T12:13:08.089Z,6.05
2022-08-26T12:15:16.444Z,5.22
2022-08-26T12:17:28.460Z,5.65
2022-08-26T12:19:33.770Z,5.00
2022-08-26T12:21:37.263Z,6.30
2022-08-26T12:23:43.607Z,5.65
2022-08-26T12:25:46.809Z,4.97
2022-08-26T12:27:54.062Z,4.63
2022-08-26T12:30:08.315Z,4.25
2022-08-26T12:32:14.131Z,3.83
2022-08-26T12:34:19.331Z,3.88
2022-08-26T12:36:25.687Z,4.82
2022-08-26T12:38:29.802Z,4.07
2022-08-26T12:40:35.814Z,4.22
2022-08-26T12:42:44.413Z,4.63
2022-08-26T12:44:52.977Z,4.65
2022-08-26T12:47:03.250Z,4.78
2022-08-26T12:49:06.212Z,4.63
2022-08-26T12:51:20.713Z,4.85
2022-08-26T12:55:37.172Z,4.63
2022-08-26T12:57:40.174Z,4.97
2022-08-26T12:59:43.052Z,4.70
2022-08-26T13:01:46.745Z,4.47
2022-08-26T13:03:51.863Z,4.82
2022-08-26T13:06:16.069Z,4.85
2022-08-26T13:08:27.451Z,3.95
2022-08-26T13:10:43.024Z,3.97
2022-08-26T13:12:46.716Z,4.47
2022-08-26T13:14:50.388Z,3.83
2022-08-26T13:16:54.216Z,4.65
2022-08-26T13:18:59.778Z,4.75
2022-08-26T13:21:12.090Z,4.72
2022-08-26T13:23:15.371Z,4.50
2022-08-26T13:25:19.614Z,3.95
2022-08-26T13:27:26.103Z,3.97
2022-08-26T13:29:29.067Z,4.45
2022-08-26T13:31:35.509Z,4.13
2022-08-26T13:33:38.618Z,3.83
2022-08-26T13:37:47.101Z,3.88
2022-08-26T13:39:50.760Z,4.85
2022-08-26T13:41:54.364Z,5.32
2022-08-26T13:43:57.341Z,4.20
2022-08-26T13:46:02.512Z,4.97
2022-08-26T13:48:06.405Z,4.22
2022-08-26T13:50:09.691Z,4.43
2022-08-26T13:52:12.719Z,5.45
2022-08-26T13:54:18.149Z,5.10
2022-08-26T13:56:23.479Z,4.65
2022-08-26T13:58:26.911Z,5.00
2022-08-26T14:00:33.277Z,4.75
2022-08-26T14:02:36.267Z,4.43
2022-08-26T14:04:39.112Z,5.00
2022-08-26T14:06:42.350Z,3.90
2022-08-26T14:08:45.279Z,4.53
2022-08-26T14:10:49.854Z,4.03
2022-08-26T14:12:53.361Z,4.38
2022-08-26T14:14:56.194Z,4.28
2022-08-26T14:17:00.431Z,3.67
2022-08-26T14:19:05.467Z,3.50
2022-08-26T14:21:10.218Z,4.07
2022-08-26T14:23:14.409Z,3.70
2022-08-26T14:25:17.594Z,4.15
2022-08-26T14:27:21.859Z,4.28
2022-08-26T14:29:24.685Z,3.90
2022-08-26T14:31:29.049Z,3.35
2022-08-26T14:33:38.082Z,4.30
2022-08-26T14:35:41.068Z,4.38
2022-08-26T14:37:51.505Z,4.53
2022-08-26T14:39:54.637Z,5.22
2022-08-26T14:41:57.915Z,3.70
2022-08-26T14:44:06.854Z,4.43
2022-08-26T14:46:09.738Z,4.15
2022-08-26T14:48:12.742Z,4.80
2022-08-26T14:50:17.415Z,4.05
2022-08-26T14:52:20.419Z,3.90
2022-08-26T14:54:22.374Z,3.72
2022-08-26T14:56:25.473Z,4.60
2022-08-26T14:58:34.944Z,4.33
2022-08-26T15:00:39.703Z,5.50
2022-08-26T15:02:43.860Z,4.45
2022-08-26T15:04:46.875Z,4.60
2022-08-26T15:06:50.627Z,4.32
2022-08-26T15:08:54.379Z,4.95
2022-08-26T15:10:57.451Z,6.53
2022-08-26T15:13:00.981Z,7.47
2022-08-26T15:15:04.146Z,9.13
2022-08-26T15:17:08.376Z,9.50
2022-08-26T15:19:11.308Z,9.60
2022-08-26T15:21:14.247Z,9.18
2022-08-26T15:23:17.158Z,10.25
2022-08-26T15:25:20.639Z,10.88
2022-08-26T15:27:23.490Z,10.68
2022-08-26T15:29:26.334Z,11.32
2022-08-26T15:31:31.871Z,11.27
2022-08-26T15:33:37.745Z,10.13
2022-08-26T15:35:41.012Z,10.57
2022-08-26T15:37:45.977Z,10.80
2022-08-26T15:39:49.109Z,9.13
2022-08-26T15:41:52.058Z,9.77
2022-08-26T15:43:54.959Z,8.20
2022-08-26T15:45:58.666Z,8.10
2022-08-26T15:48:02.133Z,8.60
2022-08-26T15:50:08.399Z,9.48
2022-08-26T15:52:11.669Z,10.27
2022-08-26T15:54:16.549Z,10.35
2022-08-26T15:56:19.907Z,13.27
2022-08-26T15:58:24.109Z,13.82
2022-08-26T16:00:29.217Z,15.50
2022-08-26T16:02:32.501Z,16.95
2022-08-26T16:04:35.466Z,17.98
2022-08-26T16:06:41.080Z,17.27
2022-08-26T16:08:45.048Z,17.85
2022-08-26T16:10:50.796Z,17.73
2022-08-26T16:12:53.854Z,17.00
2022-08-26T16:14:57.296Z,15.00
2022-08-26T16:17:00.089Z,16.55
2022-08-26T16:19:07.279Z,14.23
2022-08-26T16:21:13.689Z,14.63
2022-08-26T16:23:18.806Z,12.60
2022-08-26T16:25:21.846Z,14.23
2022-08-26T16:27:24.764Z,12.70
2022-08-26T16:29:28.216Z,12.23
2022-08-26T16:31:31.252Z,12.73
2022-08-26T16:33:34.209Z,11.63
2022-08-26T16:35:37.038Z,13.35
2022-08-26T16:37:40.216Z,13.30
2022-08-26T16:39:44.951Z,13.37
2022-08-26T16:41:48.134Z,14.48
2022-08-26T16:43:53.812Z,15.02
2022-08-26T16:45:56.867Z,14.38
2022-08-26T16:47:59.994Z,14.25
2022-08-26T16:50:02.939Z,13.73
2022-08-26T16:52:06.273Z,16.38
2022-08-26T16:54:09.531Z,15.85
2022-08-26T16:56:15.449Z,15.10
2022-08-26T16:58:21.941Z,16.20
2022-08-26T17:00:28.261Z,16.65
2022-08-26T17:02:31.122Z,20.52
2022-08-26T17:04:34.203Z,19.17
2022-08-26T17:06:38.152Z,16.63
2022-08-26T17:08:42.734Z,19.65
2022-08-26T17:10:45.638Z,19.30
2022-08-26T17:12:50.339Z,18.20
2022-08-26T17:14:53.402Z,18.55
2022-08-26T17:16:57.001Z,21.65
2022-08-26T17:19:00.730Z,20.38
2022-08-26T17:21:06.167Z,18.90
2022-08-26T17:23:09.396Z,17.33
2022-08-26T17:25:15.276Z,19.20
2022-08-26T17:27:18.387Z,17.50
2022-08-26T17:29:22.715Z,19.48
2022-08-26T17:31:27.006Z,19.27
2022-08-26T17:33:30.502Z,15.75
2022-08-26T17:35:33.871Z,18.83
2022-08-26T17:37:36.895Z,16.95
2022-08-26T17:39:43.866Z,18.70
2022-08-26T17:41:47.442Z,18.38
2022-08-26T17:43:50.373Z,16.02
2022-08-26T17:45:58.937Z,18.33
2022-08-26T17:48:11.060Z,18.02
2022-08-26T17:50:16.084Z,16.80
2022-08-26T17:52:18.875Z,19.63
2022-08-26T17:54:21.718Z,18.55
2022-08-26T17:56:26.294Z,16.58
2022-08-26T17:58:29.157Z,16.27
2022-08-26T18:00:32.003Z,14.35
2022-08-26T18:02:37.573Z,15.27
2022-08-26T18:04:40.509Z,15.38
2022-08-26T18:06:44.463Z,15.55
2022-08-26T18:08:47.399Z,14.73
2022-08-26T18:10:51.231Z,14.25
2022-08-26T18:12:55.643Z,14.00
2022-08-26T18:14:58.733Z,13.10
2022-08-26T18:17:01.974Z,13.63
2022-08-26T18:19:07.279Z,13.50
2022-08-26T18:21:13.289Z,13.05
2022-08-26T18:23:16.322Z,12.98
2022-08-26T18:25:19.493Z,11.10
2022-08-26T18:27:22.530Z,13.15
2022-08-26T18:29:29.045Z,12.27
2022-08-26T18:31:32.683Z,11.52
2022-08-26T18:33:35.790Z,11.10
2022-08-26T18:35:41.573Z,10.43
2022-08-26T18:37:45.687Z,10.48
2022-08-26T18:39:48.635Z,11.18
2022-08-26T18:41:53.294Z,10.23
2022-08-26T18:43:57.416Z,9.50
2022-08-26T18:46:04.703Z,8.45
2022-08-26T18:48:07.803Z,8.52
2022-08-26T18:50:11.922Z,9.68
2022-08-26T18:52:16.476Z,7.88
2022-08-26T18:56:29.870Z,7.95
2022-08-26T18:58:32.742Z,7.57
2022-08-26T19:00:35.673Z,7.15
2022-08-26T19:02:39.415Z,6.50
2022-08-26T19:04:42.575Z,6.97
2022-08-26T19:06:48.049Z,6.97
2022-08-26T19:08:53.104Z,5.65
2022-08-26T19:10:56.199Z,5.57
2022-08-26T19:13:02.371Z,5.80
2022-08-26T19:15:06.447Z,6.10
2022-08-26T19:17:09.913Z,5.50
2022-08-26T19:19:13.439Z,6.05
2022-08-26T19:21:16.417Z,7.00
2022-08-26T19:23:31.329Z,6.20
2022-08-26T19:25:41.285Z,6.22
2022-08-26T19:27:44.303Z,5.50
2022-08-26T19:29:47.680Z,6.00
2022-08-26T19:31:50.708Z,6.10
2022-08-26T19:33:53.622Z,5.60
2022-08-26T19:35:57.031Z,6.38
2022-08-26T19:38:00.141Z,5.43
2022-08-26T19:40:03.347Z,5.43
2022-08-26T19:42:07.726Z,5.63
2022-08-26T19:44:33.684Z,6.20
2022-08-26T19:48:46.587Z,5.13
2022-08-26T19:52:52.326Z,5.50
2022-08-26T19:54:55.228Z,5.53
2022-08-26T19:56:58.223Z,5.90
2022-08-26T19:59:02.487Z,6.13
2022-08-26T20:03:10.702Z,5.70
2022-08-26T20:05:20.836Z,6.68
2022-08-26T20:07:23.957Z,6.03
2022-08-26T20:09:26.832Z,6.28
2022-08-26T20:11:29.867Z,5.88
2022-08-26T20:13:33.339Z,7.13
2022-08-26T20:15:37.709Z,6.10
2022-08-26T20:17:41.467Z,6.93
2022-08-26T20:20:01.638Z,6.10
2022-08-26T20:22:04.858Z,6.72
2022-08-26T20:24:11.008Z,5.75
2022-08-26T20:26:14.015Z,6.03
2022-08-26T20:28:16.923Z,6.45
2022-08-26T20:30:20.059Z,5.88
2022-08-26T20:32:25.270Z,6.30
2022-08-26T20:34:28.293Z,7.15
2022-08-26T20:36:31.318Z,11.30
2022-08-26T20:38:34.425Z,12.32
2022-08-26T20:40:37.557Z,11.77
2022-08-26T20:42:40.660Z,11.20
2022-08-26T20:44:47.365Z,10.68
2022-08-26T20:46:59.735Z,10.20
2022-08-26T20:49:05.962Z,10.82
2022-08-26T20:51:11.588Z,12.00
2022-08-26T20:53:14.867Z,10.77
2022-08-26T20:55:18.580Z,11.63
2022-08-26T20:57:22.236Z,11.48
2022-08-26T20:59:26.340Z,9.65
2022-08-26T21:01:34.844Z,9.95
2022-08-26T21:03:37.914Z,10.50
2022-08-26T21:05:42.514Z,10.38
2022-08-26T21:07:45.551Z,10.75
2022-08-26T21:09:48.613Z,10.07
2022-08-26T21:11:55.744Z,11.95
2022-08-26T21:14:06.951Z,12.88
2022-08-26T21:16:19.467Z,8.98
2022-08-26T21:18:22.637Z,8.73
2022-08-26T21:20:25.779Z,8.93
2022-08-26T21:22:30.393Z,9.48
2022-08-26T21:24:34.719Z,9.23
2022-08-26T21:26:38.238Z,8.23
2022-08-26T21:28:43.724Z,9.00
2022-08-26T21:30:46.885Z,8.23
2022-08-26T21:32:50.306Z,8.77
2022-08-26T21:34:55.878Z,8.35
2022-08-26T21:36:59.080Z,8.50
2022-08-26T21:39:05.985Z,8.52
2022-08-26T21:41:14.734Z,8.55
2022-08-26T21:43:28.111Z,7.80
2022-08-26T21:45:41.315Z,8.95
2022-08-26T21:47:44.823Z,8.98
2022-08-26T21:49:47.814Z,8.23
2022-08-26T21:51:50.752Z,7.53
2022-08-26T21:53:53.784Z,7.80
2022-08-26T21:55:58.180Z,8.15
2022-08-26T21:58:01.086Z,8.48
2022-08-26T22:00:05.549Z,9.18
2022-08-26T22:02:08.641Z,8.45
2022-08-26T22:04:11.976Z,8.05
2022-08-26T22:06:14.966Z,7.18
2022-08-26T22:08:19.792Z,8.23
2022-08-26T22:10:22.746Z,8.35
2022-08-26T22:12:27.163Z,8.07
2022-08-26T22:14:31.002Z,8.52
2022-08-26T22:16:34.132Z,8.15
2022-08-26T22:18:38.141Z,8.57
2022-08-26T22:20:41.126Z,7.70
2022-08-26T22:22:45.051Z,8.38
2022-08-26T22:24:48.124Z,8.70
2022-08-26T22:26:51.804Z,7.90
2022-08-26T22:28:59.156Z,6.88
2022-08-26T22:31:03.039Z,8.88
2022-08-26T22:33:07.216Z,7.15
2022-08-26T22:35:28.085Z,8.80
2022-08-26T22:37:32.330Z,7.85
2022-08-26T22:39:35.335Z,8.77
2022-08-26T22:41:38.274Z,8.43
2022-08-26T22:43:41.891Z,8.10
2022-08-26T22:45:48.023Z,9.50
2022-08-26T22:47:51.104Z,9.35
2022-08-26T22:49:53.983Z,10.82
2022-08-26T22:51:57.552Z,12.25
2022-08-26T22:54:00.570Z,10.93
2022-08-26T22:56:03.932Z,11.68
2022-08-26T22:58:07.902Z,10.43
2022-08-26T23:00:13.852Z,11.10
2022-08-26T23:02:18.249Z,8.70
2022-08-26T23:04:21.300Z,9.25
2022-08-26T23:06:24.161Z,9.15
2022-08-26T23:08:27.662Z,8.45
2022-08-26T23:10:30.700Z,8.95
2022-08-26T23:12:34.120Z,8.02
2022-08-26T23:14:37.295Z,7.57
2022-08-26T23:16:41.740Z,7.72
2022-08-26T23:18:45.979Z,7.20
2022-08-26T23:20:48.811Z,8.65
2022-08-26T23:22:51.942Z,7.55
2022-08-26T23:24:54.839Z,7.07
2022-08-26T23:26:58.537Z,9.82
2022-08-26T23:29:01.743Z,8.40
2022-08-26T23:31:05.279Z,5.72
2022-08-26T23:33:08.186Z,7.45
2022-08-26T23:35:14.339Z,6.75
2022-08-26T23:37:19.514Z,7.93
2022-08-26T23:39:22.888Z,7.95
2022-08-26T23:41:25.815Z,7.10
2022-08-26T23:43:29.381Z,6.25
2022-08-26T23:45:32.853Z,7.60
2022-08-26T23:47:36.381Z,8.48
2022-08-26T23:49:39.251Z,8.90
2022-08-26T23:52:00.996Z,8.38
2022-08-26T23:54:03.792Z,6.47
2022-08-26T23:56:14.888Z,5.97
2022-08-26T23:58:19.420Z,7.18
